Weather observations for the past three days for
Dillon, Dillon Airport
Metric (Imperial)
Date Time (mdt) Wind (kph) Vis. (km) Weather Sky Cond. Temperature (ºC) Relative Humidity Wind Chill (°C) Heat Index (°C) Pressure Precipitation (cm)
Air Dwpt 6 hour altimeter (cm) sea level (mb) 1 hr 3 hr 6 hr
Max. Min.
02 17:53 NW 20 16.09 Fair CLR 20.6 -11.1 22.8 18.3 11% 76.15 1012.3
02 16:53 NW 22 G 37 16.09 Fair CLR 22.2 -12.8 9% 76.15 1012.0
02 15:53 W 20 G 41 16.09 Fair CLR 22.2 -12.8 9% 76.23 1012.4
02 14:53 W 17 G 28 16.09 Fair CLR 22.2 -11.7 9% 76.28 1012.9
02 13:53 W 17 G 35 16.09 Fair CLR 21.1 -11.1 10% 76.33 1013.8
02 12:53 S 13 16.09 Fair CLR 20 -10 12% 76.38 1014.8
02 11:53 S 7 16.09 Fair CLR 18.3 -9.4 18.3 1.7 14% 76.43 1016.0
02 10:53 Calm 16.09 Fair CLR 15.6 -8.9 18% 76.48 1016.6
02 09:53 SW 9 16.09 Fair CLR 11.7 -6.7 27% 76.53 1017.2
02 08:53 SW 13 16.09 Fair CLR 8.9 -6.7 33% 7 76.53 1018.3
02 07:53 S 11 16.09 Fair CLR 5 -6.1 45% 3 76.56 1017.9
02 06:53 SW 20 16.09 Fair CLR 3.3 -7.2 46% -1 76.53 1017.4
02 05:53 S 17 16.09 Fair CLR 2.2 -7.8 7.8 2.2 48% -2 76.5 1017.4
02 04:53 SW 17 16.09 Fair CLR 2.8 -8.3 44% -1 76.5 1017.4
02 03:53 S 20 16.09 Fair CLR 5 -7.8 39% 1 76.5 1017.0
02 02:53 S 17 16.09 Fair CLR 6.7 -6.7 38% 4 76.5 1016.6
02 01:53 S 22 16.09 Fair CLR 6.7 -6.7 38% 3 76.5 1017.0
02 00:53 S 20 16.09 Fair CLR 6.1 -6.1 42% 3 76.48 1017.1
01 23:53 W 6 16.09 Fair CLR 6.1 -7.8 20 6.1 37% 76.45 1017.1
01 22:53 SW 9 16.09 Fair CLR 8.3 -7.2 33% 7 76.45 1016.6
01 21:53 W 6 16.09 Fair CLR 12.8 -9.4 21% 76.4 1016.0
01 20:53 SE 15 16.09 Fair CLR 10 -7.8 28% 8 76.35 1016.2
01 19:53 SE 9 16.09 Fair CLR 17.2 -11.1 13% 76.33 1015.5
01 18:53 E 7 16.09 Fair CLR 19.4 -15 8% 76.35 1016.0
01 17:53 E 9 16.09 Fair CLR 20 -17.2 20 13.3 7% 76.38 1016.7
01 16:53 Calm 16.09 Fair CLR 19.4 -17.8 7% 76.4 1016.1
01 15:53 Calm 16.09 Fair CLR 19.4 -16.7 7% 76.45 1017.5
01 14:53 Vrbl 9 16.09 Fair CLR 18.3 -12.8 11% 76.53 1018.5
01 13:53 S 11 16.09 Fair CLR 16.7 -11.1 14% 76.56 1019.1
01 12:53 SE 15 16.09 Fair CLR 16.1 -9.4 17% 76.61 1019.0
01 11:53 Vrbl 6 16.09 Fair CLR 13.3 -8.3 13.9 -3.9 22% 76.66 1020.4
01 10:53 W 9 16.09 Fair CLR 12.2 -7.2 25% 76.71 1020.8
01 09:53 SW 15 16.09 Fair CLR 8.9 -6.7 33% 7 76.71 1021.8
01 08:53 SW 17 16.09 Fair CLR 6.1 -6.1 42% 3 76.73 1022.3
01 07:53 SW 15 16.09 Fair CLR 1.7 -6.7 54% -2 76.73 1022.4
01 06:53 SW 19 16.09 Fair CLR -1.7 -7.8 63% -7 76.71 1022.1
01 05:53 SW 11 16.09 Fair CLR -3.9 -8.3 5 -3.9 72% -8 76.68 1022.3
01 04:53 S 11 16.09 Fair CLR 1.7 -7.8 50% -1 76.68 1021.1
01 03:53 S 19 16.09 Fair CLR -1.7 -8.3 61% -7 76.66 1021.3
01 02:53 SW 6 16.09 Fair CLR -2.2 -7.8 66% 76.66 1021.6
01 01:53 SW 7 16.09 Fair CLR 0 -7.8 56% -2 76.66 1021.3
01 00:53 S 13 16.09 Fair CLR 3.9 -7.2 45% 1 76.66 1020.7
30 23:53 SW 11 16.09 Fair CLR 2.8 -7.2 14.4 2.8 48% 0 76.63 1020.9
30 22:53 SW 7 16.09 Fair CLR 5 -7.2 41% 4 76.63 1020.5
30 21:53 SE 15 16.09 Fair CLR 5.6 -6.7 41% 3 76.61 1020.5
30 20:53 NE 9 16.09 Fair CLR 7.2 -6.1 39% 6 76.56 1020.1
30 19:53 NE 13 16.09 Fair CLR 11.7 -7.2 26% 76.53 1020.0
30 18:53 NE 13 16.09 Fair CLR 13.3 -7.8 22% 76.56 1020.0
30 17:53 NE 13 G 28 16.09 Fair CLR 13.9 -8.3 14.4 10 21% 76.56 1019.8
30 16:53 E 11 16.09 Fair CLR 13.3 -8.3 22% 76.58 1020.1
30 15:53 NE 17 G 30 16.09 A Few Clouds FEW080 13.3 -8.3 22% 76.63 1020.4
30 14:53 N 19 G 33 16.09 Fair CLR 13.3 -8.3 22% 76.66 1020.9
30 13:53 NE 13 G 31 16.09 Fair CLR 12.8 -8.3 22% 76.68 1021.0
30 12:53 NE 17 G 31 16.09 Mostly Cloudy BKN075 11.1 -7.8 26% 76.73 1021.9
30 11:53 E 13 G 26 16.09 Fair CLR 10.6 -7.8 11.1 -3.9 27% 76.78 1022.5
30 10:53 NE 11 16.09 Fair CLR 8.9 -3.9 41% 7 76.81 1023.1
30 09:53 Calm 16.09 Fair CLR 6.1 -3.3 51% 76.84 1024.2
30 08:53 SW 9 16.09 Fair CLR 3.3 -3.3 62% 1 76.84 1024.7
30 07:53 S 9 16.09 Fair CLR -1.1 -3.9 82% -4 76.86 1025.3
30 06:53 S 15 16.09 Fair CLR -2.2 -5 81% -7 76.81 1024.6
30 05:53 S 11 16.09 Fair CLR -1.1 -4.4 4.4 -2.8 79% -5 76.81 1024.2
30 04:53 SW 9 16.09 Fair CLR -0.6 -3.9 79% -3 76.81 1023.9
30 03:53 S 9 16.09 Fair CLR 1.1 -3.3 73% -1 76.81 1023.4
30 02:53 S 7 16.09 Fair CLR 1.1 -3.3 73% -1 76.78 1022.8
30 01:53 S 7 16.09 Fair CLR 2.2 -2.8 70% 0 76.81 1022.9
30 00:53 S 7 16.09 Fair CLR 2.8 -2.2 70% 1 76.78 1022.8
29 23:53 S 11 16.09 Partly Cloudy SCT075 3.9 -2.2 10 2.2 65% 1 76.78 1022.9
29 22:53 Calm 16.09 Mostly Cloudy BKN080 4.4 -2.2 63% 76.78 1022.9
29 21:53 N 9 16.09 Mostly Cloudy BKN110 3.9 -2.2 65% 2 76.76 1023.5
29 20:53 N 9 16.09 Mostly Cloudy BKN070 5.6 -2.2 58% 4 76.71 1023.0
29 19:53 N 28 16.09 Mostly Cloudy SCT070 BKN090 7.8 -2.8 47% 4 76.66 1022.0
29 18:53 N 9 16.09 Overcast OVC085 10 -5 35% 9 76.61 1021.4
Date Time (mdt) Wind (kph) Vis. (km) Weather Sky Cond. Air Dwpt Max. Min. Relative Humidity Wind Chill (°C) Heat Index (°C) altimeter (cm) sea level (mb) 1 hr 3 hr 6 hr
6 hour
Temperature (ºC) Pressure Precipitation (cm)